KGSH/GSH METAR and TAF weather

Enter ICAO airport designator
Station Type Date Time Source
KGSH METAR 2019/06/19 00:53 UTC NOAA

KGSH 190053Z AUTO 32003KT 10SM BKN050 24/17 A2985 RMK AO2 SLP102 T02440167


Station Type Date Time Source
KGSH Decoded METAR 2019/06/19 00:53 UTC NOAA

GOSHEN MUNICIPAL AIRPORT, IN, United States (KGSH) 41-32N 85-47W 252M
Jun 18, 2019 - 08:53 PM EDT / 2019.06.19 0053 UTC
Wind: from the NW (320 degrees) at 3 MPH (3 KT):0
Visibility: 10 mile(s):0
Sky conditions: mostly cloudy
Temperature: 75.9 F (24.4 C)
Dew Point: 62.1 F (16.7 C)
Relative Humidity: 62%
Pressure (altimeter): 29.85 in. Hg (1010 hPa)
ob: KGSH 190053Z AUTO 32003KT 10SM BKN050 24/17 A2985 RMK AO2 SLP102 T02440167
cycle: 1

Station Type Date Time Source
KGSH TAF UTC NOAA

Error!

Example: see airport list